KFHU

Sierra Vista Municipal-Libby AAF Airport

Fort Huachuca Sierra Vista, Arizona, USA
METAR KFHU 201958Z AUTO 36007KT 10SM BKN065 32/14 A3017 RMK AO2 SLP132 T03190142
Observed Flight Rules
Aug-20 @ 19:58 UTC (32 minutes ago) Visual Flight Rules
Wind Visibility Clouds
360° at 7 knots 10 miles
  • Broken at 6,500' AGL
Temperatures Readings
Current 32°C / 90°F
Dewpoint 14°C / 57°F
Humidity 33%
Altimeter 30.17" Hg
Pressure 1013.2 hPa
Elevation 1438
METAR KFHU 201958Z AUTO 36007KT 10SM BKN065 32/14 A3017 RMK AO2 SLP132 T03190142
Observed Flight Rules
Aug-20 @ 19:58 UTC
(32 minutes ago)
VFR
Wind Visibility
360° at 7 knots 10 miles
Clouds
  • Broken at 6,500' AGL
Temperature Dewpoint
32°C / 90°F 14°C / 57°F
Humidity Altimeter Pressure
33% 30.17" Hg 1013.2 hPa